Map

Track Data

SID SEASON NUMBER BASIN SUBBASIN NAME ISO_TIME NATURE LAT LON WMO_WIND WMO_PRES WMO_AGENCY TRACK_TYPE DIST2LAND LANDFALL IFLAG USA_AGENCY USA_ATCF_ID USA_LAT USA_LON USA_RECORD USA_STATUS USA_WIND USA_PRES USA_SSHS USA_R34_NE USA_R34_SE USA_R34_SW USA_R34_NW USA_R50_NE USA_R50_SE USA_R50_SW USA_R50_NW USA_R64_NE USA_R64_SE USA_R64_SW USA_R64_NW USA_POCI USA_ROCI USA_RMW USA_EYE TOKYO_LAT TOKYO_LON TOKYO_GRADE TOKYO_WIND TOKYO_PRES TOKYO_R50_DIR TOKYO_R50_LONG TOKYO_R50_SHORT TOKYO_R30_DIR TOKYO_R30_LONG TOKYO_R30_SHORT TOKYO_LAND CMA_LAT CMA_LON CMA_CAT CMA_WIND CMA_PRES HKO_LAT HKO_LON HKO_CAT HKO_WIND HKO_PRES NEWDELHI_LAT NEWDELHI_LON NEWDELHI_GRADE NEWDELHI_WIND NEWDELHI_PRES NEWDELHI_CI NEWDELHI_DP NEWDELHI_POCI REUNION_LAT REUNION_LON REUNION_TYPE REUNION_WIND REUNION_PRES REUNION_TNUM REUNION_CI REUNION_RMW REUNION_R34_NE REUNION_R34_SE REUNION_R34_SW REUNION_R34_NW REUNION_R50_NE REUNION_R50_SE REUNION_R50_SW REUNION_R50_NW REUNION_R64_NE REUNION_R64_SE REUNION_R64_SW REUNION_R64_NW BOM_LAT BOM_LON BOM_TYPE BOM_WIND BOM_PRES BOM_TNUM BOM_CI BOM_RMW BOM_R34_NE BOM_R34_SE BOM_R34_SW BOM_R34_NW BOM_R50_NE BOM_R50_SE BOM_R50_SW BOM_R50_NW BOM_R64_NE BOM_R64_SE BOM_R64_SW BOM_R64_NW BOM_ROCI BOM_POCI BOM_EYE BOM_POS_METHOD BOM_PRES_METHOD NADI_LAT NADI_LON NADI_CAT NADI_WIND NADI_PRES WELLINGTON_LAT WELLINGTON_LON WELLINGTON_WIND WELLINGTON_PRES DS824_LAT DS824_LON DS824_STAGE DS824_WIND DS824_PRES TD9636_LAT TD9636_LON TD9636_STAGE TD9636_WIND TD9636_PRES TD9635_LAT TD9635_LON TD9635_WIND TD9635_PRES TD9635_ROCI NEUMANN_LAT NEUMANN_LON NEUMANN_CLASS NEUMANN_WIND NEUMANN_PRES MLC_LAT MLC_LON MLC_CLASS MLC_WIND MLC_PRES USA_GUST BOM_GUST BOM_GUST_PER REUNION_GUST REUNION_GUST_PER USA_SEAHGT USA_SEARAD_NE USA_SEARAD_SE USA_SEARAD_SW USA_SEARAD_NW STORM_SPEED STORM_DIR
1996288N09092 1996 98 NI BB NOT_NAMED 1996-10-14 00:00:00 NR 9.10000 91.7000 main 550 550 O_____________ jtwc_io IO051996 9.10000 91.7000 15 -1 12 288
1996288N09092 1996 98 NI BB NOT_NAMED 1996-10-14 03:00:00 NR 9.29267 91.1101 main 613 613 P_____________ IO051996 9.29267 91.1101 15 -1 13 289
1996288N09092 1996 98 NI BB NOT_NAMED 1996-10-14 06:00:00 NR 9.50000 90.5000 main 678 678 O_____________ jtwc_io IO051996 9.50000 90.5000 15 -1 13 290
1996288N09092 1996 98 NI BB NOT_NAMED 1996-10-14 09:00:00 NR 9.73492 89.8574 main 743 743 P_____________ IO051996 9.73492 89.8574 15 -1 14 291
1996288N09092 1996 98 NI BB NOT_NAMED 1996-10-14 12:00:00 NR 10.0000 89.2000 main 824 806 O_____________ jtwc_io IO051996 10.0000 89.2000 15 -1 14 293
1996288N09092 1996 98 NI BB NOT_NAMED 1996-10-14 15:00:00 NR 10.2849 88.5499 main 796 749 P_____________ IO051996 10.2849 88.5499 15 -1 14 295
1996288N09092 1996 98 NI BB NOT_NAMED 1996-10-14 18:00:00 NR 10.6000 87.9000 main 749 704 O_____________ jtwc_io IO051996 10.6000 87.9000 15 -1 15 297
1996288N09092 1996 98 NI BB NOT_NAMED 1996-10-14 21:00:00 NR 10.9499 87.2425 main 695 656 P_____________ IO051996 10.9499 87.2425 15 -1 15 299
1996288N09092 1996 98 NI BB NOT_NAMED 1996-10-15 00:00:00 NR 11.3000 86.6000 main 656 617 O_____________ jtwc_io IO051996 11.3000 86.6000 15 -1 14 298
1996288N09092 1996 98 NI BB NOT_NAMED 1996-10-15 03:00:00 NR 11.6149 85.9774 main 617 569 P_____________ IO051996 11.6149 85.9774 15 -1 13 297
1996288N09092 1996 98 NI BB NOT_NAMED 1996-10-15 06:00:00 NR 11.9000 85.4000 main 569 512 O_____________ jtwc_io IO051996 11.9000 85.4000 15 -1 12 296
1996288N09092 1996 98 NI BB NOT_NAMED 1996-10-15 09:00:00 NR 12.1574 84.8624 main 511 456 P_____________ IO051996 12.1574 84.8624 15 -1 11 297
1996288N09092 1996 98 NI BB NOT_NAMED 1996-10-15 12:00:00 NR 12.4000 84.4000 main 456 408 O_____________ jtwc_io IO051996 12.4000 84.4000 15 -1 10 301
1996288N09092 1996 98 NI BB NOT_NAMED 1996-10-15 15:00:00 NR 12.6574 84.0124 main 406 371 P_____________ IO051996 12.6574 84.0124 15 -1 8 306
1996288N09092 1996 98 NI BB NOT_NAMED 1996-10-15 18:00:00 NR 12.9000 83.7000 main 371 336 O_____________ jtwc_io IO051996 12.9000 83.7000 15 -1 7 310
1996288N09092 1996 98 NI BB NOT_NAMED 1996-10-15 21:00:00 NR 13.1299 83.4350 main 336 314 P_____________ IO051996 13.1299 83.4350 15 -1 6 309
1996288N09092 1996 98 NI BB NOT_NAMED 1996-10-16 00:00:00 NR 13.3000 83.2000 main 314 292 O_____________ jtwc_io IO051996 13.3000 83.2000 15 -1 5 298
1996288N09092 1996 98 NI BB NOT_NAMED 1996-10-16 03:00:00 NR 13.3800 82.9424 main 281 259 P_____________ IO051996 13.3800 82.9424 17 -1 5 282
1996288N09092 1996 98 NI BB NOT_NAMED 1996-10-16 06:00:00 NR 13.4000 82.7000 main 259 238 O_____________ jtwc_io IO051996 13.4000 82.7000 20 -1 4 275
1996288N09092 1996 98 NI BB NOT_NAMED 1996-10-16 09:00:00 NR 13.4150 82.4850 main 238 216 P_____________ IO051996 13.4150 82.4850 20 -1 4 270
1996288N09092 1996 98 NI BB NOT_NAMED 1996-10-16 12:00:00 NR 13.4000 82.3000 main 216 205 O_____________ jtwc_io IO051996 13.4000 82.3000 20 -1 3 261
1996288N09092 1996 98 NI BB NOT_NAMED 1996-10-16 15:00:00 NR 13.3650 82.1425 main 194 184 P_____________ IO051996 13.3650 82.1425 20 -1 3 251
1996288N09092 1996 98 NI BB NOT_NAMED 1996-10-16 18:00:00 NR 13.3000 82.0000 main 184 173 O_____________ jtwc_io IO051996 13.3000 82.0000 20 -1 3 240
1996288N09092 1996 98 NI BB NOT_NAMED 1996-10-16 21:00:00 NR 13.2075 81.8575 main 173 153 P_____________ IO051996 13.2075 81.8575 20 -1 4 236
1996288N09092 1996 98 NI BB NOT_NAMED 1996-10-17 00:00:00 NR 13.1000 81.7000 main 153 134 O_____________ jtwc_io IO051996 13.1000 81.7000 20 -1 4 237
1996288N09092 1996 98 NI BB NOT_NAMED 1996-10-17 03:00:00 NR 12.9925 81.5150 main 134 117 P_____________ IO051996 12.9925 81.5150 20 -1 4 243
1996288N09092 1996 98 NI BB NOT_NAMED 1996-10-17 06:00:00 NR 12.9000 81.3000 main 117 97 O_____________ jtwc_io IO051996 12.9000 81.3000 20 -1 5 250
1996288N09092 1996 98 NI BB NOT_NAMED 1996-10-17 09:00:00 NR 12.8275 81.0500 main 97 65 P_____________ IO051996 12.8275 81.0500 20 -1 5 258
1996288N09092 1996 98 NI BB NOT_NAMED 1996-10-17 12:00:00 NR 12.8000 80.8000 main 65 43 O_____________ jtwc_io IO051996 12.8000 80.8000 20 -1 5 271
1996288N09092 1996 98 NI BB NOT_NAMED 1996-10-17 15:00:00 NR 12.8350 80.5850 main 43 21 P_____________ IO051996 12.8350 80.5850 20 -1 4 284
1996288N09092 1996 98 NI BB NOT_NAMED 1996-10-17 18:00:00 NR 12.9000 80.4000 main 21 10 O_____________ jtwc_io IO051996 12.9000 80.4000 20 -1 4 290
1996288N09092 1996 98 NI BB NOT_NAMED 1996-10-17 21:00:00 NR 12.9575 80.2425 main 0 0 P_____________ IO051996 12.9575 80.2425 17 -1 3 289
1996288N09092 1996 98 NI BB NOT_NAMED 1996-10-18 00:00:00 NR 13.0000 80.1000 main 0 0 O_____________ jtwc_io IO051996 13.0000 80.1000 15 -1 3 280
1996288N09092 1996 98 NI BB NOT_NAMED 1996-10-18 03:00:00 NR 13.0075 79.9500 main 0 0 P_____________ IO051996 13.0075 79.9500 15 -1 3 270
1996288N09092 1996 98 NI BB NOT_NAMED 1996-10-18 06:00:00 NR 13.0000 79.8000 main 0 0 O_____________ jtwc_io IO051996 13.0000 79.8000 15 -1 3 268
1996288N09092 1996 98 NI BB NOT_NAMED 1996-10-18 09:00:00 NR 12.9999 79.6800 main 0 0 P_____________ IO051996 12.9999 79.6800 15 -1 3 270
1996288N09092 1996 98 NI BB NOT_NAMED 1996-10-18 12:00:00 NR 13.0000 79.5000 main 0 0 O_____________ jtwc_io IO051996 13.0000 79.5000 15 -1 5 270
1996288N09092 1996 98 NI BB NOT_NAMED 1996-10-18 15:00:00 NR 13.0000 79.1800 main 0 0 P_____________ IO051996 13.0000 79.1800 15 -1 7 270
1996288N09092 1996 98 NI BB NOT_NAMED 1996-10-18 18:00:00 NR 13.0000 78.8000 main 0 0 O_____________ jtwc_io IO051996 13.0000 78.8000 15 -1 7 270
1996288N09092 1996 98 NI BB NOT_NAMED 1996-10-18 21:00:00 NR 13.0000 78.4425 main 0 0 P_____________ IO051996 13.0000 78.4425 15 -1 7 270
1996288N09092 1996 98 NI BB NOT_NAMED 1996-10-19 00:00:00 NR 13.0000 78.1000 main 0 0 O_____________ jtwc_io IO051996 13.0000 78.1000 15 -1 6 270
1996288N09092 1996 98 NI AS NOT_NAMED 1996-10-19 03:00:00 NR 12.9999 77.7925 main 0 0 P_____________ IO051996 12.9999 77.7925 15 -1 6 270
1996288N09092 1996 98 NI AS NOT_NAMED 1996-10-19 06:00:00 NR 13.0000 77.5000 main 0 0 O_____________ jtwc_io IO051996 13.0000 77.5000 15 -1 6 270
1996288N09092 1996 98 NI AS NOT_NAMED 1996-10-19 09:00:00 NR 13.0000 77.2000 main 0 0 P_____________ IO051996 13.0000 77.2000 15 -1 6 270
1996288N09092 1996 98 NI AS NOT_NAMED 1996-10-19 12:00:00 NR 13.0000 76.9000 main 0 0 O_____________ jtwc_io IO051996 13.0000 76.9000 15 -1 6 269
1996288N09092 1996 98 NI AS NOT_NAMED 1996-10-19 15:00:00 NR 12.9924 76.6225 main 0 0 P_____________ IO051996 12.9924 76.6225 15 -1 6 270
1996288N09092 1996 98 NI AS NOT_NAMED 1996-10-19 18:00:00 NR 13.0000 76.3000 main 0 0 O_____________ jtwc_io IO051996 13.0000 76.3000 15 -1 7 274
1996288N09092 1996 98 NI AS NOT_NAMED 1996-10-19 21:00:00 NR 13.0425 75.8800 main 0 0 P_____________ IO051996 13.0425 75.8800 15 -1 9 277
1996288N09092 1996 98 NI AS NOT_NAMED 1996-10-20 00:00:00 NR 13.1000 75.4000 main 0 0 O_____________ jtwc_io IO051996 13.1000 75.4000 15 -1 9 277
1996288N09092 1996 98 NI AS NOT_NAMED 1996-10-20 03:00:00 NR 13.1574 74.9225 main 0 0 P_____________ IO051996 13.1574 74.9225 15 -1 10 276
1996288N09092 1996 98 NI AS NOT_NAMED 1996-10-20 06:00:00 NR 13.2000 74.4000 main 34 34 O_____________ jtwc_io IO051996 13.2000 74.4000 15 -1 11 273
1996288N09092 1996 98 NI AS NOT_NAMED 1996-10-20 09:00:00 NR 13.2075 73.8074 main 98 98 P_____________ IO051996 13.2075 73.8074 17 -1 12 270
1996288N09092 1996 98 NI AS NOT_NAMED 1996-10-20 12:00:00 NR 13.2000 73.2000 main 162 162 O_____________ jtwc_io IO051996 13.2000 73.2000 20 -1 12 269
1996288N09092 1996 98 NI AS NOT_NAMED 1996-10-20 15:00:00 NR 13.1925 72.6200 main 227 227 P_____________ IO051996 13.1925 72.6200 20 -1 11 270
1996288N09092 1996 98 NI AS NOT_NAMED 1996-10-20 18:00:00 NR 13.2000 72.1000 main 277 277 O_____________ jtwc_io IO051996 13.2000 72.1000 20 -1 9 273
1996288N09092 1996 98 NI AS NOT_NAMED 1996-10-20 21:00:00 NR 13.2349 71.6625 main 314 314 P_____________ IO051996 13.2349 71.6625 20 -1 8 277
1996288N09092 1996 98 NI AS NOT_NAMED 1996-10-21 00:00:00 NR 13.3000 71.3000 main 345 345 O_____________ jtwc_io IO051996 13.3000 71.3000 20 -1 7 283
1996288N09092 1996 98 NI AS NOT_NAMED 1996-10-21 03:00:00 NR 13.3925 70.9700 main 366 366 P_____________ IO051996 13.3925 70.9700 22 -1 6 289
1996288N09092 1996 98 NI AS NOT_NAMED 1996-10-21 06:00:00 NR 13.5000 70.7000 main 388 388 O_____________ jtwc_io IO051996 13.5000 70.7000 25 -1 5 294
1996288N09092 1996 98 NI AS NOT_NAMED 1996-10-21 09:00:00 NR 13.6075 70.4775 main 403 403 P_____________ IO051996 13.6075 70.4775 25 -1 4 297
1996288N09092 1996 98 NI AS NOT_NAMED 1996-10-21 12:00:00 NR 13.7000 70.3000 main 418 418 O_____________ jtwc_io IO051996 13.7000 70.3000 25 -1 4 294
1996288N09092 1996 98 NI AS NOT_NAMED 1996-10-21 15:00:00 NR 13.7575 70.1350 main 434 434 P_____________ IO051996 13.7575 70.1350 25 -1 3 289
1996288N09092 1996 98 NI AS NOT_NAMED 1996-10-21 18:00:00 NR 13.8000 70.0000 main 444 444 O_____________ jtwc_io IO051996 13.8000 70.0000 25 -1 3 291
1996288N09092 1996 98 NI AS NOT_NAMED 1996-10-21 21:00:00 NR 13.8500 69.8850 main 454 450 P_____________ IO051996 13.8500 69.8850 27 -1 2 297
1996288N09092 1996 98 NI AS NOT_NAMED 1996-10-22 00:00:00 NR 13.9000 69.8000 main 460 460 O_____________ jtwc_io IO051996 13.9000 69.8000 30 -1 2 305
1996288N09092 1996 98 NI AS NOT_NAMED 1996-10-22 03:00:00 NR 13.9425 69.7425 main 470 465 P_____________ IO051996 13.9425 69.7425 32 -1 1 317
1996288N09092 1996 98 NI AS NOT_NAMED 1996-10-22 06:00:00 NR 14.0000 69.7000 main 465 465 O_____________ jtwc_io IO051996 14.0000 69.7000 35 0 3 301
1996288N09092 1996 98 NI AS NOT_NAMED 1996-10-22 09:00:00 NR 14.0800 69.5080 25 1000 newdelhi main 481 464 P___O_________ IO051996 14.1000 69.6350 37 0 14.0000 69.0000 D 25 1000 1.50000 3 337
1996288N09092 1996 98 NI AS NOT_NAMED 1996-10-22 12:00:00 NR 14.3000 69.5667 25 1000 newdelhi main 464 459 O___O_________ jtwc_io IO051996 14.2000 69.6000 40 0 14.5000 69.5000 D 25 1000 1.50000 3 16
1996288N09092 1996 98 NI AS NOT_NAMED 1996-10-22 15:00:00 NR 14.3863 69.6022 main 459 459 P___P_________ IO051996 14.2500 69.6275 42 0 14.5680 69.5685 D 27 1000 1 17
1996288N09092 1996 98 NI AS NOT_NAMED 1996-10-22 18:00:00 NR 14.4000 69.6000 30 1000 newdelhi main 459 430 O___O_________ jtwc_io IO051996 14.3000 69.7000 45 0 14.5000 69.5000 DD 30 1000 2.00000 3 43
1996288N09092 1996 98 NI AS NOT_NAMED 1996-10-22 21:00:00 NR 14.5686 69.7796 main 430 416 P___P_________ IO051996 14.3700 69.7925 47 0 14.7672 69.7668 DD 30 1000 5 44
1996288N09092 1996 98 NI AS NOT_NAMED 1996-10-23 00:00:00 NR 14.7500 69.9500 30 1000 newdelhi main 401 401 O___O_________ jtwc_io IO051996 14.5000 69.9000 50 0 15.0000 70.0000 DD 30 1000 2.00000 4 37
1996288N09092 1996 98 NI AS NOT_NAMED 1996-10-23 03:00:00 NR 14.8525 70.0037 30 1000 newdelhi main 396 352 P___O_________ IO051996 14.7050 70.0075 52 0 15.0000 70.0000 DD 30 1000 2.00000 6 34
1996288N09092 1996 98 NI AS NOT_NAMED 1996-10-23 06:00:00 NR 15.2500 70.3000 30 1000 newdelhi main 347 343 O___O_________ jtwc_io IO051996 15.0000 70.1000 55 0 15.5000 70.5000 DD 30 1000 2.00000 7 29
1996288N09092 1996 98 NI AS NOT_NAMED 1996-10-23 09:00:00 NR 15.4313 70.3325 35 998 newdelhi main 343 327 P___O_________ IO051996 15.3625 70.1650 57 0 15.5000 70.5000 DD 35 998 2.50000 7 4
1996288N09092 1996 98 NI AS NOT_NAMED 1996-10-23 12:00:00 NR 15.9000 70.3500 45 998 newdelhi main 316 310 O___O_________ jtwc_io IO051996 15.8000 70.2000 60 0 16.0000 70.5000 CS 45 998 3.00000 8 1
1996288N09092 1996 98 NI AS NOT_NAMED 1996-10-23 15:00:00 NR 16.2733 70.3612 main 310 308 P___P_________ IO051996 16.3000 70.2224 62 0 16.2466 70.5000 CS 50 997 8 0
1996288N09092 1996 98 NI AS NOT_NAMED 1996-10-23 18:00:00 NR 16.6500 70.3500 55 996 newdelhi main 304 297 O___O_________ jtwc_io IO051996 16.8000 70.2000 65 1 16.5000 70.5000 SCS 55 996 3.50000 9 356
1996288N09092 1996 98 NI AS NOT_NAMED 1996-10-23 21:00:00 NR 17.2050 70.3038 main 297 280 P___P_________ IO051996 17.2225 70.1076 62 0 17.1875 70.5000 SCS 55 996 11 355
1996288N09092 1996 98 NI AS NOT_NAMED 1996-10-24 00:00:00 NR 17.7000 70.2500 55 996 newdelhi main 280 286 O___O_________ jtwc_io IO051996 17.6000 70.0000 60 0 17.8000 70.5000 SCS 55 996 3.50000 8 354
1996288N09092 1996 98 NI AS NOT_NAMED 1996-10-24 03:00:00 NR 17.9787 70.2175 60 994 newdelhi main 286 285 P___O_________ IO051996 17.9575 69.9350 57 0 18.0000 70.5000 SCS 60 994 3.50000 5 356
1996288N09092 1996 98 NI AS NOT_NAMED 1996-10-24 06:00:00 NR 18.1500 70.2000 60 994 newdelhi main 285 256 O___O_________ jtwc_io IO051996 18.3000 69.9000 55 0 18.0000 70.5000 SCS 60 994 3.50000 6 347
1996288N09092 1996 98 NI AS NOT_NAMED 1996-10-24 09:00:00 NR 18.5655 70.0764 main 246 207 P___P_________ IO051996 18.6650 69.8850 55 0 18.4661 70.2678 SCS 57 994 9 344
1996288N09092 1996 98 NI AS NOT_NAMED 1996-10-24 12:00:00 NR 19.0000 69.9500 55 994 newdelhi main 207 187 O___O_________ jtwc_io IO051996 19.0000 69.9000 55 0 19.0000 70.0000 SCS 55 994 3.50000 6 349
1996288N09092 1996 98 NI AS NOT_NAMED 1996-10-24 15:00:00 NR 19.1587 69.9524 main 187 187 P___P_________ IO051996 19.2800 69.9425 55 0 19.0374 69.9623 SCS 55 994 3 9
1996288N09092 1996 98 NI AS NOT_NAMED 1996-10-24 18:00:00 NR 19.2500 70.0000 55 994 newdelhi main 177 167 O___O_________ jtwc_io IO051996 19.5000 70.0000 55 0 19.0000 70.0000 SCS 55 994 3.50000 3 14
1996288N09092 1996 98 NI AS NOT_NAMED 1996-10-24 21:00:00 NR 19.4186 70.0287 main 167 148 P___P_________ IO051996 19.6725 70.0575 52 0 19.1648 70.0000 SCS 50 995 4 5
1996288N09092 1996 98 NI AS NOT_NAMED 1996-10-25 00:00:00 NR 19.6500 70.0500 45 996 newdelhi main 133 115 O___O_________ jtwc_io IO051996 19.8000 70.1000 50 0 19.5000 70.0000 SCS 45 996 3.00000 5 3
1996288N09092 1996 98 NI AS NOT_NAMED 1996-10-25 03:00:00 NR 19.9575 70.0612 35 998 newdelhi main 107 107 P___O_________ IO051996 19.9150 70.1225 47 0 20.0000 70.0000 CS 35 998 2.50000 4 0
1996288N09092 1996 98 NI AS NOT_NAMED 1996-10-25 06:00:00 NR 20.0000 70.0500 30 1000 newdelhi main 107 107 O___O_________ jtwc_io IO051996 20.0000 70.1000 45 0 20.0000 70.0000 DD 30 1000 2.00000 1 324
1996288N09092 1996 98 NI AS NOT_NAMED 1996-10-25 09:00:00 NR 20.0363 70.0075 main 113 103 P___P_________ IO051996 20.0725 70.0150 42 0 20.0000 70.0000 DD 27 1001 1 297
1996288N09092 1996 98 NI AS NOT_NAMED 1996-10-25 12:00:00 NR 20.0500 69.9500 25 1002 newdelhi main 103 109 O___O_________ jtwc_io IO051996 20.1000 69.9000 40 0 20.0000 70.0000 D 25 1002 1.50000 1 270
1996288N09092 1996 98 NI AS NOT_NAMED 1996-10-25 15:00:00 NR 20.0363 69.8925 main 118 118 P___P_________ IO051996 20.0725 69.7850 37 0 20.0000 70.0000 D 25 1002 1 243
1996288N09092 1996 98 NI AS NOT_NAMED 1996-10-25 18:00:00 NR 20.0000 69.8500 main 118 118 O___P_________ jtwc_io IO051996 20.0000 69.7000 35 0 20.0000 70.0000 D 25 1002 1 201
1996288N09092 1996 98 NI AS NOT_NAMED 1996-10-25 21:00:00 NR 19.9537 69.8425 main 124 124 P___P_________ IO051996 19.9075 69.6850 32 -1 20.0000 70.0000 D 25 1002 1 0
1996288N09092 1996 98 NI AS NOT_NAMED 1996-10-26 00:00:00 NR 19.9000 69.8500 25 1002 newdelhi main 128 128 O___O_________ jtwc_io IO051996 19.8000 69.7000 30 -1 20.0000 70.0000 D 25 1002 1.50000 1 172
1996288N09092 1996 98 NI AS NOT_NAMED 1996-10-26 03:00:00 NR 19.8500 69.8500 25 1002 newdelhi main 128 133 P___O_________ IO051996 19.7000 69.7000 27 -1 20.0000 70.0000 D 25 1002 1.50000 1 0
1996288N09092 1996 98 NI AS NOT_NAMED 1996-10-26 06:00:00 NR 19.8000 69.8500 25 1002 newdelhi main 137 137 O___O_________ jtwc_io IO051996 19.6000 69.7000 25 -1 20.0000 70.0000 D 25 1002 1.50000 1 0
1996288N09092 1996 98 NI AS NOT_NAMED 1996-10-26 09:00:00 NR 19.7575 69.8538 main 137 137 P___P_________ IO051996 19.5150 69.7075 25 -1 20.0000 70.0000 D 25 1002 1 0
1996288N09092 1996 98 NI AS NOT_NAMED 1996-10-26 12:00:00 NR 19.7000 69.8500 25 1002 newdelhi main 146 152 O___O_________ jtwc_io IO051996 19.4000 69.7000 25 -1 20.0000 70.0000 D 25 1002 1.50000 1 183
1996288N09092 1996 98 NI AS NOT_NAMED 1996-10-26 15:00:00 NR 19.6150 69.8363 main 161 161 P___P_________ IO051996 19.2300 69.6726 27 -1 20.0000 70.0000 D 25 1002 2 193
1996288N09092 1996 98 NI AS NOT_NAMED 1996-10-26 18:00:00 NR 19.5000 69.8000 25 1002 newdelhi main 170 170 O___O_________ jtwc_io IO051996 19.0000 69.6000 30 -1 20.0000 70.0000 D 25 1002 1.50000 2 205
1996288N09092 1996 98 NI AS NOT_NAMED 1996-10-26 21:00:00 NR 19.4086 69.7325 main 185 185 P___P_________ IO051996 18.7150 69.4650 32 -1 20.1023 70.0000 D 25 1002 3 205
1996288N09092 1996 98 NI AS NOT_NAMED 1996-10-27 00:00:00 NR 19.2000 69.6500 25 1002 newdelhi main 203 203 O___O_________ jtwc_io IO051996 18.4000 69.3000 35 0 20.0000 70.0000 D 25 1002 1.50000 6 193
1996288N09092 1996 98 NI AS NOT_NAMED 1996-10-27 03:00:00 NR 18.8075 69.5788 25 1002 newdelhi main 246 246 P___O_________ IO051996 18.1150 69.1576 37 0 19.5000 70.0000 D 25 1002 1.50000 7 197
1996288N09092 1996 98 NI AS NOT_NAMED 1996-10-27 06:00:00 NR 18.5286 69.4286 25 1002 newdelhi main 286 286 O___O_________ jtwc_io IO051996 17.8000 69.0000 40 0 19.5000 70.0000 D 25 1002 1.50000 9 202
1996288N09092 1996 98 NI AS NOT_NAMED 1996-10-27 09:00:00 NR 17.9433 69.2100 25 1002 newdelhi main 355 355 P___O_________ IO051996 17.4150 68.8150 42 0 19.0000 70.0000 D 25 1002 1.50000 14 207
1996288N09092 1996 98 NI AS NOT_NAMED 1996-10-27 12:00:00 NR 17.3000 68.7800 25 1002 newdelhi main 434 434 O___O_________ jtwc_io IO051996 17.0000 68.6000 45 0 18.5000 69.5000 D 25 1002 1.50000 16 211
1996288N09092 1996 98 NI AS NOT_NAMED 1996-10-27 15:00:00 NR 16.5925 68.3651 main 510 510 P_____________ IO051996 16.5925 68.3651 42 0 13 211
1996288N09092 1996 98 NI AS NOT_NAMED 1996-10-27 18:00:00 NR 16.2000 68.1000 main 554 554 O_____________ jtwc_io IO051996 16.2000 68.1000 40 0 9 215
1996288N09092 1996 98 NI AS NOT_NAMED 1996-10-27 21:00:00 NR 15.8275 67.8000 main 592 592 P_____________ IO051996 15.8275 67.8000 37 0 9 220
1996288N09092 1996 98 NI AS NOT_NAMED 1996-10-28 00:00:00 NR 15.5000 67.5000 main 630 630 O_____________ jtwc_io IO051996 15.5000 67.5000 35 0 8 222
1996288N09092 1996 98 NI AS NOT_NAMED 1996-10-28 03:00:00 NR 15.2125 67.2351 main 668 668 P_____________ IO051996 15.2125 67.2351 35 0 7 224
1996288N09092 1996 98 NI AS NOT_NAMED 1996-10-28 06:00:00 NR 15.0000 67.0000 main 695 695 O_____________ jtwc_io IO051996 15.0000 67.0000 35 0 5 232
1996288N09092 1996 98 NI AS NOT_NAMED 1996-10-28 09:00:00 NR 14.8849 66.8076 main 718 718 P_____________ IO051996 14.8849 66.8076 35 0 4 243
1996288N09092 1996 98 NI AS NOT_NAMED 1996-10-28 12:00:00 NR 14.8000 66.6000 main 742 742 O_____________ jtwc_io IO051996 14.8000 66.6000 35 0 5 243
1996288N09092 1996 98 NI AS NOT_NAMED 1996-10-28 15:00:00 NR 14.6499 66.3375 main 779 779 P_____________ IO051996 14.6499 66.3375 35 0 7 243
1996288N09092 1996 98 NI AS NOT_NAMED 1996-10-28 18:00:00 NR 14.5000 66.0000 main 813 813 O_____________ jtwc_io IO051996 14.5000 66.0000 35 0 8 251
1996288N09092 1996 98 NI AS NOT_NAMED 1996-10-28 21:00:00 NR 14.3925 65.5800 main 858 858 P_____________ IO051996 14.3925 65.5800 35 0 9 257
1996288N09092 1996 98 NI AS NOT_NAMED 1996-10-29 00:00:00 NR 14.3000 65.1000 main 913 910 O_____________ jtwc_io IO051996 14.3000 65.1000 35 0 9 258
1996288N09092 1996 98 NI AS NOT_NAMED 1996-10-29 03:00:00 NR 14.1998 64.6301 main 901 866 P_____________ IO051996 14.1998 64.6301 35 0 10 258
1996288N09092 1996 98 NI AS NOT_NAMED 1996-10-29 06:00:00 NR 14.1000 64.1000 main 866 826 O_____________ jtwc_io IO051996 14.1000 64.1000 35 0 11 260
1996288N09092 1996 98 NI AS NOT_NAMED 1996-10-29 09:00:00 NR 14.0001 63.4650 main 826 781 P_____________ IO051996 14.0001 63.4650 35 0 13 261
1996288N09092 1996 98 NI AS NOT_NAMED 1996-10-29 12:00:00 NR 13.9000 62.8000 main 781 747 O_____________ jtwc_io IO051996 13.9000 62.8000 35 0 13 260
1996288N09092 1996 98 NI AS NOT_NAMED 1996-10-29 15:00:00 NR 13.7849 62.1775 main 747 718 P_____________ IO051996 13.7849 62.1775 35 0 12 260
1996288N09092 1996 98 NI AS NOT_NAMED 1996-10-29 18:00:00 NR 13.7000 61.6000 main 718 688 O_____________ jtwc_io IO051996 13.7000 61.6000 35 0 11 265
1996288N09092 1996 98 NI AS NOT_NAMED 1996-10-29 21:00:00 NR 13.6847 61.1001 main 688 650 P_____________ IO051996 13.6847 61.1001 35 0 10 270
1996288N09092 1996 98 NI AS NOT_NAMED 1996-10-30 00:00:00 NR 13.7000 60.6000 main 650 607 O_____________ jtwc_io IO051996 13.7000 60.6000 35 0 11 271
1996288N09092 1996 98 NI AS NOT_NAMED 1996-10-30 03:00:00 NR 13.7000 60.0075 main 607 544 P_____________ IO051996 13.7000 60.0075 35 0 12 270
1996288N09092 1996 98 NI AS NOT_NAMED 1996-10-30 06:00:00 NR 13.7000 59.4000 main 544 481 O_____________ jtwc_io IO051996 13.7000 59.4000 35 0 12 270
1996288N09092 1996 98 NI AS NOT_NAMED 1996-10-30 09:00:00 NR 13.7075 58.8126 main 481 429 P_____________ IO051996 13.7075 58.8126 35 0 11 270
1996288N09092 1996 98 NI AS NOT_NAMED 1996-10-30 12:00:00 NR 13.7000 58.3000 main 429 398 O_____________ jtwc_io IO051996 13.7000 58.3000 35 0 9 267
1996288N09092 1996 98 NI AS NOT_NAMED 1996-10-30 15:00:00 NR 13.6572 57.9350 main 388 354 P_____________ IO051996 13.6572 57.9350 35 0 7 262
1996288N09092 1996 98 NI AS NOT_NAMED 1996-10-30 18:00:00 NR 13.6000 57.6000 main 354 313 O_____________ jtwc_io IO051996 13.6000 57.6000 35 0 8 263
1996288N09092 1996 98 NI AS NOT_NAMED 1996-10-30 21:00:00 NR 13.5576 57.1425 main 303 258 P_____________ IO051996 13.5576 57.1425 32 -1 9 263
1996288N09092 1996 98 NI AS NOT_NAMED 1996-10-31 00:00:00 NR 13.5000 56.7000 main 258 224 O_____________ jtwc_io IO051996 13.5000 56.7000 30 -1 8 259
1996288N09092 1996 98 NI AS NOT_NAMED 1996-10-31 03:00:00 NR 13.4148 56.3851 main 224 190 P_____________ IO051996 13.4148 56.3851 30 -1 6 251
1996288N09092 1996 98 NI AS NOT_NAMED 1996-10-31 06:00:00 NR 13.3000 56.1000 main 190 156 O_____________ jtwc_io IO051996 13.3000 56.1000 30 -1 7 250
1996288N09092 1996 98 NI AS NOT_NAMED 1996-10-31 09:00:00 NR 13.1875 55.7501 main 156 107 P_____________ IO051996 13.1875 55.7501 30 -1 7 246
1996288N09092 1996 98 NI AS NOT_NAMED 1996-10-31 12:00:00 NR 13.0000 55.4000 main 107 66 O_____________ jtwc_io IO051996 13.0000 55.4000 30 -1 8 231
1996288N09092 1996 98 NI AS NOT_NAMED 1996-10-31 15:00:00 NR 12.6650 55.0849 main 66 39 P_____________ IO051996 12.6650 55.0849 27 -1 9 220
1996288N09092 1996 98 NI AS NOT_NAMED 1996-10-31 18:00:00 NR 12.3000 54.8000 main 46 46 O_____________ jtwc_io IO051996 12.3000 54.8000 25 -1 8 221
1996288N09092 1996 98 NI AS NOT_NAMED 1996-10-31 21:00:00 NR 12.0650 54.5427 main 49 49 P_____________ IO051996 12.0650 54.5427 25 -1 7 224
1996288N09092 1996 98 NI AS NOT_NAMED 1996-11-01 00:00:00 NR 11.8000 54.3000 main 64 64 O_____________ jtwc_io IO051996 11.8000 54.3000 25 -1 8 215
1996288N09092 1996 98 NI AS NOT_NAMED 1996-11-01 03:00:00 NR 11.3725 54.0500 main 100 100 P_____________ IO051996 11.3725 54.0500 25 -1 10 209
1996288N09092 1996 98 NI AS NOT_NAMED 1996-11-01 06:00:00 NR 10.9000 53.8000 main 156 156 O_____________ jtwc_io IO051996 10.9000 53.8000 25 -1 10 209
1996288N09092 1996 98 NI AS NOT_NAMED 1996-11-01 09:00:00 NR 10.4925 53.5501 main 201 201 P_____________ IO051996 10.4925 53.5501 25 -1 9 212
1996288N09092 1996 98 NI AS NOT_NAMED 1996-11-01 12:00:00 NR 10.1000 53.3000 main 210 194 O_____________ jtwc_io IO051996 10.1000 53.3000 25 -1 9 212
1996288N09092 1996 98 NI AS NOT_NAMED 1996-11-01 15:00:00 NR 9.70000 53.0425 main 192 190 P_____________ IO051996 9.70000 53.0425 25 -1 9 212
1996288N09092 1996 98 NI AS NOT_NAMED 1996-11-01 18:00:00 NR 9.30000 52.8000 main 196 195 O_____________ jtwc_io IO051996 9.30000 52.8000 25 -1 9 209
1996288N09092 1996 98 NI AS NOT_NAMED 1996-11-01 21:00:00 NR 8.89996 52.6001 main 205 197 P_____________ IO051996 8.89996 52.6001 22 -1 9 206
1996288N09092 1996 98 NI AS NOT_NAMED 1996-11-02 00:00:00 NR 8.50000 52.4000 main 202 197 O_____________ jtwc_io IO051996 8.50000 52.4000 20 -1 9 208
1996288N09092 1996 98 NI AS NOT_NAMED 1996-11-02 03:00:00 NR 8.10005 52.1624 main 205 197 P_____________ IO051996 8.10005 52.1624 20 -1 9 212
1996288N09092 1996 98 NI AS NOT_NAMED 1996-11-02 06:00:00 NR 7.70000 51.9000 main 206 O_____________ jtwc_io IO051996 7.70000 51.9000 20 -1 10 213

About IBTrACS Database

This database is a web-friendly format of International Best Track Archive for Climate Stewardship (IBTrACS), a global best track data archive curated by NOAA dating back to 1842.

Updated: 2021-12-03